CU7BC Horta current weather conditions

sailwx.info

Wind from 316 at 6 knots gusting 8

Air temperature 17.2° C
Dewpoint 8.1° C

Last reported at 2019-Dec-14 15:55 UTC.
Time now 2019-Dec-14 16:40 UTC

Location: N 38°32' E 028°40'.
View on Google Maps.

See reports from other nearby stations

  
Tides and Currents Weather Stations Pressure Air Temp Water Temp Dewpoint Dewpoint Depression Visibility Wind Speed Wind Dir Waves Ship Positions
date/time (UTC)wind fromknots sea level pressurealtimeterstation pressurevisibilityair tempwater tempwave heightnotes
2019-Dec-14 15:55 316 6 gusting 8 17.2
2019-Dec-14 15:50 341 2 gusting 10 17.2
2019-Dec-14 15:45 315 6 gusting 17 16.7
2019-Dec-14 15:40 336 12 gusting 17 16.1
2019-Dec-14 15:35 312 4 gusting 6 15.6
2019-Dec-14 15:30 273 5 gusting 8 15.6
2019-Dec-14 15:25 002 4 gusting 11 15.6
2019-Dec-14 15:20 15.6
2019-Dec-14 15:15 336 7 gusting 11 16.1
2019-Dec-14 15:10 290 9 gusting 13 16.1
2019-Dec-14 15:05 335 10 gusting 14 16.7
2019-Dec-14 15:00 315 4 gusting 10 17.2
2019-Dec-14 14:55 357 2 gusting 6 17.2
2019-Dec-14 14:50 270 5 gusting 6 16.1
2019-Dec-14 14:45 336 4 gusting 13 16.1
2019-Dec-14 14:40 16.1
2019-Dec-14 14:35 273 10 gusting 13 16.1
2019-Dec-14 14:30 16.7
2019-Dec-14 14:25 088 4 gusting 11 16.7
2019-Dec-14 14:20 274 6 gusting 10 17.2
2019-Dec-14 14:15 315 5 gusting 8 16.7
2019-Dec-14 14:10 270 5 gusting 6 16.7
2019-Dec-14 14:05 317 4 gusting 11 16.1
2019-Dec-14 14:00 316 6 gusting 11 16.1
2019-Dec-14 13:55 042 5 gusting 6 16.7
2019-Dec-14 13:50 320 4 gusting 8 16.7
2019-Dec-14 13:45 273 5 gusting 7 16.7
2019-Dec-14 13:40 356 6 gusting 11 16.7
2019-Dec-14 13:35 041 5 gusting 8 16.7
2019-Dec-14 13:30 178 4 gusting 8 16.1
2019-Dec-14 13:25 002 6 gusting 8 16.7
2019-Dec-14 13:20 132 1 gusting 8 16.7
2019-Dec-14 13:15 106 6 gusting 13 16.7
2019-Dec-14 13:10 132 7 gusting 11 17.2
2019-Dec-14 13:05 115 4 gusting 6 16.7
2019-Dec-14 13:00 137 1 gusting 2 16.1
2019-Dec-14 12:55 312 2 gusting 6 16.1
2019-Dec-14 12:50 15.6
2019-Dec-14 12:45 004 6 gusting 13 15.6
2019-Dec-14 12:40 315 6 gusting 14 15.6
2019-Dec-14 12:35 339 7 gusting 8 15.6
2019-Dec-14 12:30 340 3 gusting 11 15.6
2019-Dec-14 12:25 358 6 gusting 8 15.6
2019-Dec-14 12:20 043 4 gusting 8 15.6
2019-Dec-14 12:15 315 6 gusting 8 15.6
2019-Dec-14 12:10 002 6 gusting 10 15.6
2019-Dec-14 12:05 043 2 gusting 8 15.6
2019-Dec-14 12:00 045 5 gusting 13 15.6
2019-Dec-14 11:55 087 4 gusting 6 16.1
2019-Dec-14 11:50 175 5 gusting 11 15.6
2019-Dec-14 11:45 003 6 gusting 18 16.1
2019-Dec-14 11:40 359 8 gusting 13 16.1
2019-Dec-14 11:35 177 12 gusting 15 16.7
2019-Dec-14 11:30 180 2 gusting 8 16.7
2019-Dec-14 11:25 223 5 gusting 6 17.2
2019-Dec-14 11:20 329 6 gusting 12 16.7
2019-Dec-14 11:15 186 2 gusting 6 17.2
2019-Dec-14 11:10 225 6 gusting 6 17.8
2019-Dec-14 11:05 138 6 gusting 8 17.8
2019-Dec-14 11:00 135 6 gusting 6 17.2
2019-Dec-14 10:55 180 4 gusting 7 16.1
2019-Dec-14 10:50 137 5 gusting 7 15.6
2019-Dec-14 10:45 312 1 gusting 7 15.6
2019-Dec-14 10:40 339 3 gusting 6 15.6
2019-Dec-14 10:35 355 5 gusting 13 15.6
2019-Dec-14 10:30 315 12 gusting 18 15.6
2019-Dec-14 10:25 357 11 gusting 13 15.0
2019-Dec-14 10:20 15.0
2019-Dec-14 10:15 337 12 gusting 18 15.0
2019-Dec-14 10:10 359 12 gusting 19 15.0
2019-Dec-14 10:05 317 13 gusting 19 15.0
2019-Dec-14 10:00 358 13 gusting 18 15.0
2019-Dec-14 09:55 15.0
2019-Dec-14 09:50 338 17 gusting 24 15.0
2019-Dec-14 09:45 336 17 gusting 25 15.0
2019-Dec-14 09:40 14.4
2019-Dec-14 09:35 14.4
2019-Dec-14 09:30 319 13 gusting 19 15.0
2019-Dec-14 09:25 357 15 gusting 20 15.0
2019-Dec-14 09:20 358 11 gusting 18 15.6
2019-Dec-14 09:05 265 4 gusting 11 16.1
2019-Dec-14 09:00 311 5 gusting 8 16.1
2019-Dec-14 08:55 357 5 gusting 12 16.1
2019-Dec-14 08:50 045 5 gusting 6 16.7
2019-Dec-14 08:45 356 5 gusting 6 16.7
2019-Dec-14 08:40 006 5 gusting 6 16.7
2019-Dec-14 08:35 087 3 gusting 6 16.7
2019-Dec-14 08:30 316 0 gusting 6 16.7
2019-Dec-14 08:25 315 5 gusting 13 16.7
2019-Dec-14 08:20 244 6 gusting 11 16.7
2019-Dec-14 08:15 090 2 gusting 6 16.1
2019-Dec-14 08:10 230 1 gusting 6 16.1
2019-Dec-14 08:05 312 4 gusting 10 16.1
2019-Dec-14 08:00 157 5 gusting 6 16.1
2019-Dec-14 07:55 085 4 gusting 6 15.6
2019-Dec-14 07:50 042 2 gusting 5 15.6
2019-Dec-14 07:45 16.1
2019-Dec-14 07:40 270 6 gusting 11 16.1
2019-Dec-14 07:35 270 8 gusting 13 16.1
2019-Dec-14 07:30 270 8 gusting 12 16.1
2019-Dec-14 07:25 274 8 gusting 11 16.1
2019-Dec-14 07:20 290 8 gusting 13 16.1
2019-Dec-14 07:15 270 9 gusting 14 15.6
2019-Dec-14 07:10 270 8 gusting 13 15.6
2019-Dec-14 07:05 270 12 gusting 17 16.1
2019-Dec-14 07:00 249 12 gusting 15 16.1
2019-Dec-14 06:55 290 11 gusting 17 16.1
2019-Dec-14 06:50 312 10 gusting 14 16.1
2019-Dec-14 06:45 270 12 gusting 18 16.1
2019-Dec-14 06:40 270 14 gusting 22 16.1
2019-Dec-14 06:35 270 12 gusting 21 16.1
2019-Dec-14 06:30 312 19 gusting 25 16.7
2019-Dec-14 06:25 253 19 gusting 26 16.7
2019-Dec-14 06:20 228 15 gusting 22 17.2
2019-Dec-14 06:15 334 17 gusting 22 17.2
2019-Dec-14 06:10 269 15 gusting 26 17.2
2019-Dec-14 06:05 270 22 gusting 31 17.2
2019-Dec-14 06:00 225 17 gusting 21 17.2
2019-Dec-14 05:55 227 17 gusting 21 17.8
2019-Dec-14 05:50 227 19 gusting 21 17.8
2019-Dec-14 05:45 268 15 gusting 19 17.8
2019-Dec-14 05:40 268 13 gusting 19 17.8
2019-Dec-14 05:35 227 14 gusting 20 17.8
2019-Dec-14 05:30 225 14 gusting 19 17.8
2019-Dec-14 05:25 247 14 gusting 18 17.8
2019-Dec-14 05:20 227 15 gusting 19 17.8
2019-Dec-14 05:15 247 15 gusting 19 17.8
2019-Dec-14 05:10 225 17 gusting 21 17.8
2019-Dec-14 05:05 225 12 gusting 14 17.8
2019-Dec-14 05:00 225 11 gusting 18 17.8
2019-Dec-14 04:55 225 13 gusting 19 17.8
2019-Dec-14 04:50 225 14 gusting 19 17.8
2019-Dec-14 04:45 225 14 gusting 19 17.8
2019-Dec-14 04:40 225 15 gusting 19 17.8
2019-Dec-14 04:35 248 16 gusting 21 17.8
2019-Dec-14 04:30 225 14 gusting 19 17.8
2019-Dec-14 04:25 227 15 gusting 21 17.8
2019-Dec-14 04:20 225 16 gusting 21 17.8
2019-Dec-14 04:15 246 13 gusting 19 17.8
2019-Dec-14 04:10 226 15 gusting 18 17.8
2019-Dec-14 04:05 225 14 gusting 21 17.8
2019-Dec-14 04:00 226 17 gusting 21 17.8
2019-Dec-14 03:55 267 15 gusting 20 17.8
2019-Dec-14 03:50 227 14 gusting 19 17.8
2019-Dec-14 03:45 248 13 gusting 22 17.8
2019-Dec-14 03:40 225 14 gusting 19 17.8
2019-Dec-14 03:35 249 16 gusting 19 17.8
2019-Dec-14 03:30 223 15 gusting 20 17.8
2019-Dec-14 03:25 334 13 gusting 21 17.8
2019-Dec-14 03:20 265 14 gusting 20 17.8
2019-Dec-14 03:15 268 14 gusting 19 17.8
2019-Dec-14 03:10 228 15 gusting 19 17.8
2019-Dec-14 03:05 225 15 gusting 21 17.8
2019-Dec-14 03:00 225 15 gusting 21 17.8
2019-Dec-14 02:55 225 13 gusting 18 17.8
2019-Dec-14 02:50 225 15 gusting 18 17.8
2019-Dec-14 02:45 225 13 gusting 15 17.8
2019-Dec-14 02:40 249 12 gusting 17 17.8
2019-Dec-14 02:35 225 13 gusting 18 17.8
2019-Dec-14 02:30 225 13 gusting 18 17.8
2019-Dec-14 02:25 225 15 gusting 18 17.8
2019-Dec-14 02:20 227 15 gusting 18 17.8
2019-Dec-14 02:15 247 13 gusting 18 17.8
2019-Dec-14 02:10 225 13 gusting 19 17.8
2019-Dec-14 02:05 228 15 gusting 19 17.8
2019-Dec-14 02:00 246 15 gusting 21 17.8
2019-Dec-14 01:55 225 17 gusting 21 17.8
2019-Dec-14 01:50 249 14 gusting 19 17.8
2019-Dec-14 01:45 225 14 gusting 18 17.8
2019-Dec-14 01:40 225 15 gusting 19 17.8
2019-Dec-14 01:35 204 15 gusting 18 17.8
2019-Dec-14 01:30 203 13 gusting 17 17.8
2019-Dec-14 01:25 203 12 gusting 18 17.8
2019-Dec-14 01:20 225 15 gusting 18 17.8
2019-Dec-14 01:15 225 13 gusting 19 17.8
2019-Dec-14 01:10 225 16 gusting 19 17.8
2019-Dec-14 01:05 225 15 gusting 18 17.8
2019-Dec-14 01:00 246 15 gusting 19 17.8
2019-Dec-14 00:55 225 13 gusting 19 17.8
2019-Dec-14 00:50 248 17 gusting 19 17.8
2019-Dec-14 00:45 268 13 gusting 17 17.8
2019-Dec-14 00:40 225 15 gusting 19 17.8
2019-Dec-14 00:35 183 15 gusting 19 17.8
2019-Dec-14 00:30 268 14 gusting 21 17.8
2019-Dec-14 00:25 227 15 gusting 19 17.8
2019-Dec-14 00:20 225 15 gusting 19 17.8
2019-Dec-14 00:15 229 16 gusting 19 17.8
2019-Dec-14 00:10 225 16 gusting 19 17.8
2019-Dec-14 00:05 248 14 gusting 17 17.8
2019-Dec-14 00:00 225 13 gusting 18 17.8
2019-Dec-13 23:55 268 15 gusting 18 17.8
2019-Dec-13 23:50 225 13 gusting 19 17.8
2019-Dec-13 23:45 225 14 gusting 19 17.8
2019-Dec-13 23:40 225 15 gusting 19 17.8
2019-Dec-13 23:35 225 13 gusting 17 17.8
2019-Dec-13 23:30 228 13 gusting 17 17.8
2019-Dec-13 23:25 225 13 gusting 18 17.8
2019-Dec-13 23:20 225 18 gusting 27 17.8
2019-Dec-13 23:15 228 13 gusting 19 17.8
2019-Dec-13 23:10 225 14 gusting 18 17.8
2019-Dec-13 23:05 332 17 gusting 21 17.8
2019-Dec-13 23:00 229 18 gusting 22 17.8
2019-Dec-13 22:55 247 15 gusting 19 17.8
2019-Dec-13 22:50 268 15 gusting 19 17.8
2019-Dec-13 22:45 225 14 gusting 19 17.8
2019-Dec-13 22:40 225 14 gusting 19 17.8
2019-Dec-13 22:35 228 13 gusting 18 17.8
2019-Dec-13 22:30 225 14 gusting 19 17.8
2019-Dec-13 22:25 225 17 gusting 19 17.8
2019-Dec-13 22:20 225 13 gusting 18 17.8
2019-Dec-13 22:15 225 14 gusting 18 17.8
2019-Dec-13 22:10 227 12 gusting 20 17.2
2019-Dec-13 22:05 225 15 gusting 21 17.2
2019-Dec-13 22:00 311 16 gusting 21 17.2
2019-Dec-13 21:55 229 14 gusting 22 17.2
2019-Dec-13 21:50 266 15 gusting 19 17.8
2019-Dec-13 21:45 225 17 gusting 19 17.8
2019-Dec-13 21:40 225 12 gusting 18 17.8
2019-Dec-13 21:35 225 13 gusting 19 17.8
2019-Dec-13 21:30 225 15 gusting 19 17.8
2019-Dec-13 21:25 229 13 gusting 18 17.8
2019-Dec-13 21:20 225 13 gusting 18 17.8
2019-Dec-13 21:15 227 13 gusting 17 17.8
2019-Dec-13 21:10 248 14 gusting 18 17.8
2019-Dec-13 21:05 267 13 gusting 18 17.8
2019-Dec-13 21:00 225 14 gusting 18 17.8
2019-Dec-13 20:55 225 14 gusting 18 17.8
2019-Dec-13 20:50 225 13 gusting 18 17.8
2019-Dec-13 20:45 247 14 gusting 19 17.8
2019-Dec-13 20:40 225 14 gusting 19 17.8
2019-Dec-13 20:35 268 17 gusting 19 17.8
2019-Dec-13 20:30 246 14 gusting 20 18.3
2019-Dec-13 20:25 268 13 gusting 19 17.8
2019-Dec-13 20:20 313 15 gusting 19 17.8
2019-Dec-13 20:15 248 15 gusting 19 17.8
2019-Dec-13 20:10 225 13 gusting 18 17.8
2019-Dec-13 20:05 225 13 gusting 17 17.8
2019-Dec-13 20:00 225 14 gusting 18 17.8
2019-Dec-13 19:55 225 14 gusting 18 17.8
2019-Dec-13 19:50 225 14 gusting 18 17.8
2019-Dec-13 19:45 225 14 gusting 17 17.8
2019-Dec-13 19:40 227 13 gusting 18 17.8
2019-Dec-13 19:35 225 12 gusting 19 17.8
2019-Dec-13 19:30 225 14 gusting 19 17.8
2019-Dec-13 19:25 225 15 gusting 19 17.8
2019-Dec-13 19:20 225 15 gusting 18 17.8
2019-Dec-13 19:15 268 13 gusting 19 17.8
2019-Dec-13 19:10 227 16 gusting 19 17.8
2019-Dec-13 19:05 225 14 gusting 17 17.8
2019-Dec-13 19:00 246 13 gusting 19 17.8
2019-Dec-13 18:55 225 14 gusting 18 17.8
2019-Dec-13 18:50 225 15 gusting 18 17.8
2019-Dec-13 18:45 225 13 gusting 15 17.8
2019-Dec-13 18:40 225 11 gusting 15 17.8
2019-Dec-13 18:35 204 13 gusting 18 17.8
2019-Dec-13 18:30 225 14 gusting 18 17.8
2019-Dec-13 18:25 225 14 gusting 17 17.8
2019-Dec-13 18:20 225 10 gusting 17 17.8
2019-Dec-13 18:15 225 13 gusting 18 18.3
2019-Dec-13 18:10 225 14 gusting 17 17.8
2019-Dec-13 18:05 225 11 gusting 17 17.8
2019-Dec-13 18:00 225 13 gusting 18 18.3
2019-Dec-13 17:55 225 13 gusting 17 18.3
2019-Dec-13 17:50 225 14 gusting 18 17.8
2019-Dec-13 17:45 225 13 gusting 15 17.8
2019-Dec-13 17:40 225 12 gusting 15 17.8
2019-Dec-13 17:35 225 13 gusting 17 17.8
2019-Dec-13 17:30 225 14 gusting 18 17.8
2019-Dec-13 17:25 225 13 gusting 18 17.8
2019-Dec-13 17:20 225 12 gusting 17 17.8
2019-Dec-13 17:15 225 14 gusting 17 17.8
2019-Dec-13 17:10 225 12 gusting 17 17.8
2019-Dec-13 17:05 225 13 gusting 17 18.3
2019-Dec-13 17:00 228 13 gusting 14 18.3
2019-Dec-13 16:55 225 12 gusting 18 18.3
2019-Dec-13 16:50 225 14 gusting 18 18.3
2019-Dec-13 16:45 225 13 gusting 15 18.3
2019-Dec-13 16:40 225 10 gusting 14 18.3
2019-Dec-13 16:35 225 9 gusting 14 18.3
2019-Dec-13 16:30 225 10 gusting 13 18.3
2019-Dec-13 16:25 266 10 gusting 14 18.3
2019-Dec-13 16:20 225 13 gusting 14 18.3
2019-Dec-13 16:15 225 12 gusting 14 18.3
2019-Dec-13 16:10 225 10 gusting 14 18.3
2019-Dec-13 16:05 225 12 gusting 14 18.3
2019-Dec-13 16:00 225 11 gusting 13 18.3
2019-Dec-13 15:55 267 10 gusting 13 18.3
2019-Dec-13 15:50 246 11 gusting 13 18.3
2019-Dec-13 15:45 248 10 gusting 13 18.3
2019-Dec-13 15:40 265 8 gusting 14 18.3
2019-Dec-13 15:35 225 12 gusting 15 18.3
2019-Dec-13 15:30 227 8 gusting 13 18.3
2019-Dec-13 15:25 227 9 gusting 14 18.3
2019-Dec-13 15:20 225 11 gusting 14 18.3
2019-Dec-13 15:15 225 10 gusting 13 18.3
2019-Dec-13 15:10 225 11 gusting 14 18.9
2019-Dec-13 15:05 227 12 gusting 14 18.3
2019-Dec-13 15:00 311 12 gusting 17 18.3
2019-Dec-13 14:55 225 12 gusting 17 18.9
2019-Dec-13 14:50 225 13 gusting 17 18.9
2019-Dec-13 14:45 225 12 gusting 14 18.9
2019-Dec-13 14:40 225 12 gusting 14 18.9
2019-Dec-13 14:35 225 11 gusting 14 18.9
2019-Dec-13 14:30 225 13 gusting 14 19.4
2019-Dec-13 14:25 225 10 gusting 13 19.4
2019-Dec-13 14:20 225 13 gusting 15 19.4
2019-Dec-13 14:15 225 13 gusting 18 19.4
2019-Dec-13 14:10 225 11 gusting 15 19.4
2019-Dec-13 14:05 204 12 gusting 17 18.9
2019-Dec-13 14:00 225 13 gusting 14 18.9
2019-Dec-13 13:55 225 12 gusting 17 18.9
2019-Dec-13 13:50 225 14 gusting 19 18.9
2019-Dec-13 13:45 225 13 gusting 18 19.4
2019-Dec-13 13:40 221 15 gusting 18 19.4
2019-Dec-13 13:35 225 14 gusting 19 19.4
2019-Dec-13 13:30 225 13 gusting 19 20.0
2019-Dec-13 13:25 225 13 gusting 19 19.4
2019-Dec-13 13:20 225 15 gusting 19 19.4
2019-Dec-13 13:15 225 13 gusting 19 19.4
2019-Dec-13 13:10 225 17 gusting 19 18.9
2019-Dec-13 13:05 270 15 gusting 19 18.9
2019-Dec-13 13:00 228 13 gusting 15 18.9
2019-Dec-13 12:55 183 14 gusting 17 19.4
2019-Dec-13 12:50 225 11 gusting 18 20.0
2019-Dec-13 12:45 246 13 gusting 17 19.4
2019-Dec-13 12:40 228 12 gusting 17 19.4
2019-Dec-13 12:35 225 13 gusting 19 19.4
2019-Dec-13 12:30 311 14 gusting 18 19.4
2019-Dec-13 12:25 225 13 gusting 18 19.4
2019-Dec-13 12:20 247 13 gusting 17 19.4
2019-Dec-13 12:15 227 13 gusting 15 18.9
2019-Dec-13 12:10 267 12 gusting 17 18.9
2019-Dec-13 12:05 228 12 gusting 15 18.9
2019-Dec-13 12:00 267 13 gusting 17 18.9
2019-Dec-13 11:55 270 11 gusting 14 18.3
2019-Dec-13 11:50 267 11 gusting 13 17.8
2019-Dec-13 11:45 268 10 gusting 14 17.8
2019-Dec-13 11:40 268 12 gusting 14 17.8
2019-Dec-13 11:35 246 12 gusting 14 17.8
2019-Dec-13 11:30 311 12 gusting 17 17.8
2019-Dec-13 11:25 270 12 gusting 17 17.8
2019-Dec-13 11:20 227 12 gusting 14 17.8
2019-Dec-13 11:15 228 12 gusting 14 17.8
2019-Dec-13 11:10 246 11 gusting 13 17.8
2019-Dec-13 11:05 227 10 gusting 17 17.8
2019-Dec-13 11:00 225 13 gusting 17 17.8
2019-Dec-13 10:55 227 13 gusting 17 17.8
2019-Dec-13 10:50 246 13 gusting 17 17.8
2019-Dec-13 10:45 248 11 gusting 18 17.8
2019-Dec-13 10:40 246 14 gusting 18 17.8
2019-Dec-13 10:35 225 14 gusting 19 17.8
2019-Dec-13 10:30 265 15 gusting 21 17.8
2019-Dec-13 10:25 205 14 gusting 18 17.8
2019-Dec-13 10:20 225 16 gusting 19 17.8
2019-Dec-13 10:15 225 14 gusting 19 17.8
2019-Dec-13 10:10 227 16 gusting 19 17.8
2019-Dec-13 10:05 225 17 gusting 21 17.8
2019-Dec-13 10:00 247 14 gusting 19 17.8
2019-Dec-13 09:55 267 16 gusting 24 17.8
2019-Dec-13 09:50 225 15 gusting 19 17.8
2019-Dec-13 09:45 225 18 gusting 22 17.8
2019-Dec-13 09:40 267 19 gusting 22 17.8
2019-Dec-13 09:35 225 15 gusting 19 17.8
2019-Dec-13 09:30 225 17 gusting 19 17.8
2019-Dec-13 09:25 225 15 gusting 19 17.8
2019-Dec-13 09:20 225 15 gusting 18 17.8
2019-Dec-13 09:15 225 13 gusting 19 17.2
2019-Dec-13 09:10 227 14 gusting 21 17.8
2019-Dec-13 09:05 225 17 gusting 21 17.2
2019-Dec-13 09:00 225 15 gusting 19 17.2
2019-Dec-13 08:55 225 12 gusting 18 17.2
2019-Dec-13 08:50 225 14 gusting 19 17.2
2019-Dec-13 08:45 225 16 gusting 19 17.2
2019-Dec-13 08:40 223 15 gusting 19 17.2
2019-Dec-13 08:35 225 15 gusting 19 17.2
2019-Dec-13 08:30 225 17 gusting 19 17.2
2019-Dec-13 08:25 225 14 gusting 20 17.2
2019-Dec-13 08:20 183 13 gusting 20 17.2
2019-Dec-13 08:15 225 14 gusting 19 17.2
2019-Dec-13 08:10 225 15 gusting 22 17.2
2019-Dec-13 08:05 225 16 gusting 19 17.2
2019-Dec-13 08:00 225 17 gusting 19 17.2
2019-Dec-13 07:55 225 17 gusting 19 17.2
2019-Dec-13 07:50 225 15 gusting 19 17.2
2019-Dec-13 07:45 183 15 gusting 19 17.2
2019-Dec-13 07:40 225 15 gusting 19 17.2
2019-Dec-13 07:35 225 13 gusting 18 17.2
2019-Dec-13 07:30 225 15 gusting 19 17.2
2019-Dec-13 07:25 223 14 gusting 20 17.2
2019-Dec-13 07:20 225 16 gusting 21 17.2
2019-Dec-13 07:15 225 18 gusting 21 17.2
2019-Dec-13 07:10 225 15 gusting 18 17.2
2019-Dec-13 07:05 204 14 gusting 19 17.2
2019-Dec-13 07:00 225 16 gusting 19 17.2
2019-Dec-13 06:55 225 16 gusting 19 17.2
2019-Dec-13 06:50 225 16 gusting 19 17.2
2019-Dec-13 06:45 220 11 gusting 17 17.2
2019-Dec-13 06:40 225 13 gusting 15 17.2
2019-Dec-13 06:35 228 13 gusting 18 16.7
2019-Dec-13 06:30 225 11 gusting 18 16.7
2019-Dec-13 06:25 222 13 gusting 18 16.7
2019-Dec-13 06:20 225 13 gusting 18 16.7
2019-Dec-13 06:15 225 13 gusting 19 16.7
2019-Dec-13 06:10 225 14 gusting 18 16.7
2019-Dec-13 06:05 225 12 gusting 18 16.7
2019-Dec-13 06:00 225 14 gusting 20 16.7
2019-Dec-13 05:55 225 17 gusting 20 16.7
2019-Dec-13 05:50 182 14 gusting 18 16.7
2019-Dec-13 05:45 228 13 gusting 18 16.7
2019-Dec-13 05:40 225 13 gusting 18 16.7
2019-Dec-13 05:35 225 13 gusting 19 16.7
2019-Dec-13 05:30 269 14 gusting 19 16.7
2019-Dec-13 05:25 225 11 gusting 17 16.7
2019-Dec-13 05:20 225 13 gusting 17 16.7
2019-Dec-13 05:15 225 13 gusting 18 16.7
2019-Dec-13 05:10 246 13 gusting 17 16.7
2019-Dec-13 05:05 225 14 gusting 18 16.7
2019-Dec-13 05:00 266 15 gusting 20 16.7
2019-Dec-13 04:55 228 13 gusting 19 16.7
2019-Dec-13 04:50 221 13 gusting 15 16.7
2019-Dec-13 04:45 225 13 gusting 18 16.7
2019-Dec-13 04:40 225 14 gusting 19 16.7
2019-Dec-13 04:35 226 16 gusting 18 16.7
2019-Dec-13 04:30 225 14 gusting 18 16.7
2019-Dec-13 04:25 225 15 gusting 18 16.7
2019-Dec-13 04:20 221 14 gusting 19 16.7
2019-Dec-13 04:15 225 12 gusting 18 16.7
2019-Dec-13 04:10 225 13 gusting 17 16.7
2019-Dec-13 04:05 225 11 gusting 13 16.1
2019-Dec-13 04:00 225 13 gusting 18 16.1
2019-Dec-13 03:55 225 13 gusting 15 16.1
2019-Dec-13 03:50 225 11 gusting 13 16.1
2019-Dec-13 03:45 225 11 gusting 15 16.1
2019-Dec-13 03:40 225 10 gusting 14 16.1
2019-Dec-13 03:35 225 13 gusting 17 16.1
2019-Dec-13 03:30 225 12 gusting 21 16.1
2019-Dec-13 03:25 225 14 gusting 19 16.1
2019-Dec-13 03:20 223 14 gusting 21 16.1
2019-Dec-13 03:15 225 18 gusting 25 16.1
2019-Dec-13 03:10 226 15 gusting 20 16.1
2019-Dec-13 03:05 225 13 gusting 14 16.7
2019-Dec-13 03:00 225 12 gusting 14 16.1
2019-Dec-13 02:55 225 9 gusting 14 16.1
2019-Dec-13 02:50 228 13 gusting 14 16.1
2019-Dec-13 02:45 225 11 gusting 13 16.1
2019-Dec-13 02:40 226 9 gusting 17 16.1
2019-Dec-13 02:35 227 13 gusting 17 16.1
2019-Dec-13 02:30 267 12 gusting 19 16.1
2019-Dec-13 02:25 267 15 gusting 17 16.1
2019-Dec-13 02:20 225 13 gusting 17 16.1
2019-Dec-13 02:15 225 13 gusting 19 16.1
2019-Dec-13 02:10 248 14 gusting 17 16.1
2019-Dec-13 02:05 270 13 gusting 15 16.1
2019-Dec-13 02:00 227 13 gusting 18 16.1
2019-Dec-13 01:55 227 9 gusting 12 16.1
2019-Dec-13 01:50 247 9 gusting 13 16.1
2019-Dec-13 01:45 267 8 gusting 13 16.1
2019-Dec-13 01:40 225 11 gusting 13 16.1
2019-Dec-13 01:35 225 8 gusting 14 16.1
2019-Dec-13 01:30 225 9 gusting 13 16.1
2019-Dec-13 01:25 225 11 gusting 13 16.1
2019-Dec-13 01:20 225 8 gusting 14 16.1
2019-Dec-13 01:15 228 10 gusting 14 16.1
2019-Dec-13 01:10 225 13 gusting 17 16.1
2019-Dec-13 01:05 225 11 gusting 12 16.1
2019-Dec-13 01:00 225 9 gusting 13 16.1
2019-Dec-13 00:55 225 10 gusting 13 16.1
2019-Dec-13 00:50 225 8 gusting 11 16.1
2019-Dec-13 00:45 225 10 gusting 13 16.1
2019-Dec-13 00:40 225 11 gusting 15 16.1
2019-Dec-13 00:35 225 11 gusting 14 16.1
2019-Dec-13 00:30 182 11 gusting 14 16.1
2019-Dec-13 00:25 225 13 gusting 15 16.1
2019-Dec-13 00:20 222 12 gusting 17 16.1
2019-Dec-13 00:15 222 11 gusting 14 16.1
2019-Dec-13 00:10 183 13 gusting 14 16.1
2019-Dec-13 00:05 225 13 gusting 14 16.1
2019-Dec-13 00:00 223 10 gusting 13 16.1
2019-Dec-12 23:55 225 7 gusting 14 16.1
2019-Dec-12 23:50 225 10 gusting 13 16.1
2019-Dec-12 23:45 225 12 gusting 17 16.1
2019-Dec-12 23:40 225 7 gusting 13 15.6
2019-Dec-12 23:35 223 11 gusting 14 15.6
2019-Dec-12 23:30 222 11 gusting 14 15.6
2019-Dec-12 23:25 225 9 gusting 14 16.1
2019-Dec-12 23:20 225 11 gusting 13 15.6
2019-Dec-12 23:15 225 6 gusting 14 15.6
2019-Dec-12 23:10 225 10 gusting 13 15.6
2019-Dec-12 23:05 225 8 gusting 13 15.6
2019-Dec-12 23:00 225 10 gusting 13 15.6
2019-Dec-12 22:55 225 10 gusting 13 15.6
2019-Dec-12 22:50 266 8 gusting 11 15.6
2019-Dec-12 22:45 247 7 gusting 10 15.6
2019-Dec-12 22:40 227 10 gusting 13 15.6
2019-Dec-12 22:35 225 6 gusting 11 15.6
2019-Dec-12 22:30 270 6 gusting 10 15.6
2019-Dec-12 22:25 250 5 gusting 11 15.6
2019-Dec-12 22:20 267 6 gusting 11 15.6
2019-Dec-12 22:15 227 8 gusting 13 15.6
2019-Dec-12 22:10 225 11 gusting 13 15.6
2019-Dec-12 22:05 268 9 gusting 11 15.6
2019-Dec-12 22:00 248 8 gusting 11 15.6
2019-Dec-12 21:55 267 8 gusting 11 15.6
2019-Dec-12 21:50 225 9 gusting 14 15.6
2019-Dec-12 21:45 225 11 gusting 14 15.6
2019-Dec-12 21:40 267 9 gusting 12 15.6
2019-Dec-12 21:35 225 8 gusting 14 15.6
2019-Dec-12 21:30 223 11 gusting 17 15.6
2019-Dec-12 21:25 044 14 gusting 17 15.6
2019-Dec-12 21:20 225 8 gusting 12 15.6
2019-Dec-12 21:15 270 8 gusting 13 15.6
2019-Dec-12 21:10 227 5 gusting 11 15.0
2019-Dec-12 21:05 270 9 gusting 14 15.0
2019-Dec-12 21:00 247 6 gusting 11 15.0
2019-Dec-12 20:55 247 8 gusting 12 15.0
2019-Dec-12 20:50 291 5 gusting 10 15.0
2019-Dec-12 20:45 225 8 gusting 11 15.0
2019-Dec-12 20:40 225 6 gusting 11 15.0
2019-Dec-12 20:35 225 9 gusting 13 15.0
2019-Dec-12 20:30 224 8 gusting 11 15.0
2019-Dec-12 20:25 229 9 gusting 13 15.0
2019-Dec-12 20:20 226 6 gusting 13 15.0
2019-Dec-12 20:15 225 11 gusting 13 15.0
2019-Dec-12 20:10 222 10 gusting 13 15.0
2019-Dec-12 20:05 225 8 gusting 13 15.0
2019-Dec-12 20:00 225 10 gusting 13 15.0
2019-Dec-12 19:55 204 8 gusting 11 15.0
2019-Dec-12 19:50 183 7 gusting 10 15.0
2019-Dec-12 19:45 204 8 gusting 13 15.0
2019-Dec-12 19:40 228 7 gusting 10 15.0
2019-Dec-12 19:35 267 5 gusting 10 15.0
2019-Dec-12 19:30 227 6 gusting 8 15.0
2019-Dec-12 19:25 270 6 gusting 10 15.0
2019-Dec-12 19:20 225 6 gusting 11 15.0
2019-Dec-12 19:15 225 8 gusting 11 15.0
2019-Dec-12 19:10 223 6 gusting 11 15.0
2019-Dec-12 19:05 225 8 gusting 13 15.0
2019-Dec-12 19:00 225 12 gusting 14 15.0
2019-Dec-12 18:55 225 6 gusting 8 15.0
2019-Dec-12 18:50 271 7 gusting 13 15.0
2019-Dec-12 18:45 225 11 gusting 13 15.0
2019-Dec-12 18:40 225 9 gusting 15 15.0
2019-Dec-12 18:35 225 7 gusting 11 15.0
2019-Dec-12 18:30 225 7 gusting 10 15.0
2019-Dec-12 18:25 221 10 gusting 13 15.0
2019-Dec-12 18:20 225 11 gusting 13 15.0
2019-Dec-12 18:15 225 11 gusting 13 15.0
2019-Dec-12 18:10 227 6 gusting 11 15.0
2019-Dec-12 18:05 273 7 gusting 11 15.0
2019-Dec-12 18:00 270 10 gusting 13 15.0
2019-Dec-12 17:55 269 6 gusting 10 15.0
2019-Dec-12 17:50 225 8 gusting 11 15.0
2019-Dec-12 17:45 225 8 gusting 14 15.0
2019-Dec-12 17:40 223 11 gusting 13 15.0
2019-Dec-12 17:35 225 10 gusting 13 15.0
2019-Dec-12 17:30 225 9 gusting 13 15.0
2019-Dec-12 17:25 267 11 gusting 13 15.0
2019-Dec-12 17:20 183 6 gusting 11 15.0
2019-Dec-12 17:15 225 9 gusting 13 15.0
2019-Dec-12 17:10 225 9 gusting 13 15.0
2019-Dec-12 17:05 268 6 gusting 8 15.0
2019-Dec-12 17:00 248 5 gusting 13 15.0
2019-Dec-12 16:55 247 10 gusting 13 15.0
2019-Dec-12 16:50 270 7 gusting 8 15.0
2019-Dec-12 16:45 270 6 gusting 8 15.0
2019-Dec-12 16:40 270 8 gusting 11 15.0
2019-Dec-12 16:35 227 6 gusting 8 15.6
2019-Dec-12 16:30 249 5 gusting 14 15.6
2019-Dec-12 16:25 269 12 gusting 14 15.6
2019-Dec-12 16:20 268 8 gusting 13 15.6
2019-Dec-12 16:15 269 7 gusting 13 15.6
2019-Dec-12 16:10 246 10 gusting 13 15.6
2019-Dec-12 16:05 270 8 gusting 11 15.6
2019-Dec-12 16:00 228 6 gusting 8 15.6